createdAt,value
2022-10-05T00:01:30.136Z,101621.84
2022-10-05T00:06:31.539Z,101619.13
2022-10-05T00:11:32.942Z,101608.63
2022-10-05T00:16:34.850Z,101594.66
2022-10-05T00:21:36.241Z,101595.56
2022-10-05T00:26:37.573Z,101590.41
2022-10-05T00:31:39.049Z,101589.47
2022-10-05T00:36:40.513Z,101599.81
2022-10-05T00:41:47.920Z,101599.81
2022-10-05T00:46:52.293Z,101596.31
2022-10-05T00:52:09.097Z,101587.66
2022-10-05T00:57:16.584Z,101585.91
2022-10-05T01:02:36.739Z,101579.91
2022-10-05T01:07:52.935Z,101575.59
2022-10-05T01:13:15.168Z,101582.47
2022-10-05T01:18:25.396Z,101566.94
2022-10-05T01:23:35.836Z,101565.06
2022-10-05T01:28:40.955Z,101555.59
2022-10-05T01:33:42.435Z,101551.31
2022-10-05T01:38:55.499Z,101556.50
2022-10-05T01:44:09.896Z,101531.25
2022-10-05T01:49:30.100Z,101526.09
2022-10-05T01:54:37.619Z,101512.28
2022-10-05T01:59:57.943Z,101493.13
2022-10-05T02:05:04.352Z,101487.78
2022-10-05T02:10:09.110Z,101489.41
2022-10-05T02:15:13.522Z,101490.25
2022-10-05T02:20:17.106Z,101470.34
2022-10-05T02:25:23.634Z,101472.84
2022-10-05T02:30:24.919Z,101461.47
2022-10-05T02:35:26.394Z,101461.47
2022-10-05T02:40:37.970Z,101464.91
2022-10-05T02:45:39.354Z,101457.06
2022-10-05T02:50:43.412Z,101450.91
2022-10-05T02:55:56.500Z,101456.94
2022-10-05T03:01:30.672Z,101444.84
2022-10-05T03:06:36.433Z,101446.53
2022-10-05T03:11:52.028Z,101438.81
2022-10-05T03:17:02.488Z,101443.13
2022-10-05T03:22:22.698Z,101441.47
2022-10-05T03:27:33.248Z,101438.06
2022-10-05T03:32:41.812Z,101447.59
2022-10-05T03:37:51.170Z,101441.53
2022-10-05T03:42:52.604Z,101446.00
2022-10-05T03:48:05.318Z,101444.25
2022-10-05T03:53:32.993Z,101446.88
2022-10-05T03:58:49.591Z,101444.34
2022-10-05T04:03:54.863Z,101439.19
2022-10-05T04:09:00.253Z,101440.00
2022-10-05T04:14:04.892Z,101432.19
2022-10-05T04:19:35.492Z,101433.94
2022-10-05T04:24:40.635Z,101431.25
2022-10-05T04:29:48.199Z,101428.66
2022-10-05T04:34:55.647Z,101416.59
2022-10-05T04:40:06.130Z,101407.91
2022-10-05T04:45:22.884Z,101405.31
2022-10-05T04:50:41.379Z,101399.19
2022-10-05T04:55:55.183Z,101394.81
2022-10-05T05:01:02.825Z,101393.91
2022-10-05T05:06:30.269Z,101385.19
2022-10-05T05:11:50.394Z,101394.69
2022-10-05T05:16:57.826Z,101386.06
2022-10-05T05:22:11.490Z,101380.00
2022-10-05T05:27:18.883Z,101380.00
2022-10-05T05:32:20.138Z,101380.84
2022-10-05T05:37:34.049Z,101379.13
2022-10-05T05:42:54.213Z,101373.88
2022-10-05T05:47:58.669Z,101385.16
2022-10-05T05:53:35.620Z,101368.69
2022-10-05T05:58:39.696Z,101373.06
2022-10-05T06:03:45.665Z,101376.53
2022-10-05T06:08:52.016Z,101376.59
2022-10-05T06:13:54.012Z,101380.00
2022-10-05T06:18:57.119Z,101378.38
2022-10-05T06:23:58.457Z,101386.13
2022-10-05T06:29:03.683Z,101386.19
2022-10-05T06:34:18.480Z,101379.25
2022-10-05T06:39:31.492Z,101394.00
2022-10-05T06:44:32.752Z,101390.53
2022-10-05T06:49:45.975Z,101394.00
2022-10-05T06:54:59.438Z,101387.91
2022-10-05T07:00:02.490Z,101378.38
2022-10-05T07:05:22.668Z,101391.44
2022-10-05T07:10:30.124Z,101383.72
2022-10-05T07:15:41.946Z,101391.50
2022-10-05T07:21:02.173Z,101394.91
2022-10-05T07:26:12.371Z,101398.44
2022-10-05T07:31:18.429Z,101403.69
2022-10-05T07:36:43.360Z,101389.81
2022-10-05T07:41:51.140Z,101399.38
2022-10-05T07:46:58.499Z,101395.97
2022-10-05T07:52:01.539Z,101392.50
2022-10-05T07:57:20.271Z,101392.59
2022-10-05T08:02:28.413Z,101390.00
2022-10-05T08:07:31.752Z,101388.31
2022-10-05T08:12:43.450Z,101392.66
2022-10-05T08:18:02.497Z,101389.25
2022-10-05T08:23:25.898Z,101375.44
2022-10-05T08:28:43.863Z,101372.91
2022-10-05T08:33:58.611Z,101367.78
2022-10-05T08:39:03.916Z,101359.22
2022-10-05T08:44:25.153Z,101362.75
2022-10-05T08:49:34.243Z,101354.94
2022-10-05T08:54:45.609Z,101351.47
2022-10-05T08:59:46.902Z,101354.94
2022-10-05T09:05:07.228Z,101352.38
2022-10-05T09:10:24.664Z,101348.94
2022-10-05T09:15:44.860Z,101342.03
2022-10-05T09:20:49.168Z,101349.00
2022-10-05T09:26:07.023Z,101337.78
2022-10-05T09:31:20.858Z,101341.25
2022-10-05T09:36:30.509Z,101331.75
2022-10-05T09:41:44.551Z,101329.19
2022-10-05T09:46:52.133Z,101323.97
2022-10-05T09:52:06.660Z,101315.34
2022-10-05T09:57:25.281Z,101310.19
2022-10-05T10:02:32.890Z,101298.88
2022-10-05T10:07:34.272Z,101293.69
2022-10-05T10:12:41.646Z,101283.25
2022-10-05T10:18:01.960Z,101276.28
2022-10-05T10:23:22.210Z,101263.19
2022-10-05T10:28:31.925Z,101250.13
2022-10-05T10:33:45.663Z,101260.53
2022-10-05T10:39:02.252Z,101263.09
2022-10-05T10:44:22.234Z,101258.78
2022-10-05T10:49:30.584Z,101254.44
2022-10-05T10:54:52.703Z,101251.78
2022-10-05T10:59:54.211Z,101253.53
2022-10-05T11:05:21.328Z,101238.75
2022-10-05T11:10:29.685Z,101237.84
2022-10-05T11:15:38.743Z,101256.13
2022-10-05T11:20:42.211Z,101245.66
2022-10-05T11:25:59.081Z,101233.44
2022-10-05T11:31:10.242Z,101218.59
2022-10-05T11:36:17.707Z,101217.72
2022-10-05T11:41:21.913Z,101211.56
2022-10-05T11:46:31.690Z,101201.94
2022-10-05T11:51:38.400Z,101194.09
2022-10-05T11:56:48.428Z,101192.25
2022-10-05T12:02:06.930Z,101180.69
2022-10-05T12:07:08.195Z,101179.94
2022-10-05T12:12:22.334Z,101172.81
2022-10-05T12:17:33.079Z,101165.66
2022-10-05T12:22:38.416Z,101162.19
2022-10-05T12:27:42.446Z,101156.84
2022-10-05T12:32:46.919Z,101144.72
2022-10-05T12:37:58.475Z,101142.81
2022-10-05T12:43:14.942Z,101143.56
2022-10-05T12:48:25.331Z,101137.50
2022-10-05T12:53:35.727Z,101140.91
2022-10-05T12:58:42.787Z,101152.34
2022-10-05T13:04:10.586Z,101137.47
2022-10-05T13:09:20.494Z,101139.91
2022-10-05T13:14:34.975Z,101125.94
2022-10-05T13:19:39.450Z,101131.72
2022-10-05T13:24:43.601Z,101130.88
2022-10-05T13:29:51.025Z,101123.06
2022-10-05T13:35:10.608Z,101118.47
2022-10-05T13:40:13.131Z,101129.78
2022-10-05T13:45:23.134Z,101119.25
2022-10-05T13:50:33.711Z,101131.47
2022-10-05T13:55:53.732Z,101117.63
2022-10-05T14:00:57.092Z,101117.78
2022-10-05T14:06:00.007Z,101123.75
2022-10-05T14:11:20.216Z,101115.97
2022-10-05T14:16:26.124Z,101113.97
2022-10-05T14:21:31.226Z,101117.53
2022-10-05T14:26:34.112Z,101119.28
2022-10-05T14:31:36.928Z,101125.50
2022-10-05T14:36:43.875Z,101117.56
2022-10-05T14:41:47.621Z,101118.56
2022-10-05T14:46:53.130Z,101124.72
2022-10-05T14:51:55.103Z,101113.97
2022-10-05T14:57:05.441Z,101110.69
2022-10-05T15:02:27.130Z,101131.94
2022-10-05T15:07:31.522Z,101146.94
2022-10-05T15:12:40.163Z,101167.31
2022-10-05T15:17:54.468Z,101171.81
2022-10-05T15:28:32.422Z,101182.47
2022-10-05T15:33:39.519Z,101199.84
2022-10-05T15:38:48.487Z,101207.78
2022-10-05T15:43:55.415Z,101188.72
2022-10-05T15:49:16.268Z,101187.03
2022-10-05T15:54:36.571Z,101188.84
2022-10-05T15:59:47.233Z,101208.09
2022-10-05T16:05:03.907Z,101202.06
2022-10-05T16:10:15.559Z,101189.91
2022-10-05T16:15:22.466Z,101206.50
2022-10-05T16:20:41.055Z,101199.50
2022-10-05T16:25:48.709Z,101223.06
2022-10-05T16:30:55.164Z,101241.38
2022-10-05T16:36:21.821Z,101233.56
2022-10-05T16:41:27.457Z,101236.19
2022-10-05T16:46:35.509Z,101243.16
2022-10-05T16:51:56.617Z,101250.16
2022-10-05T16:57:06.759Z,101254.47
2022-10-05T17:02:15.695Z,101256.22
2022-10-05T17:07:21.892Z,101263.19
2022-10-05T17:12:30.162Z,101276.25
2022-10-05T17:17:51.954Z,101270.16
2022-10-05T17:23:02.146Z,101274.53
2022-10-05T17:28:20.839Z,101276.25
2022-10-05T17:33:30.718Z,101283.22
2022-10-05T17:38:34.084Z,101281.50
2022-10-05T17:43:35.544Z,101284.09
2022-10-05T17:48:41.243Z,101294.53
2022-10-05T17:54:04.628Z,101294.53
2022-10-05T17:59:09.291Z,101300.59
2022-10-05T18:04:14.892Z,101294.53
2022-10-05T18:09:22.899Z,101300.63
2022-10-05T18:14:24.937Z,101302.34
2022-10-05T18:19:30.196Z,101313.69
2022-10-05T18:24:53.250Z,101294.50
2022-10-05T18:30:05.304Z,101308.44
2022-10-05T18:35:32.750Z,101305.81
2022-10-05T18:40:42.212Z,101313.69
2022-10-05T18:46:19.670Z,101318.88
2022-10-05T18:51:30.113Z,101321.50
2022-10-05T18:56:38.513Z,101331.91
2022-10-05T19:01:46.037Z,101337.13
2022-10-05T19:06:56.801Z,101337.16
2022-10-05T19:12:05.457Z,101351.06
2022-10-05T19:17:29.585Z,101356.28
2022-10-05T19:22:42.259Z,101358.91
2022-10-05T19:27:55.595Z,101375.44
2022-10-05T19:33:08.128Z,101367.59
2022-10-05T19:38:34.114Z,101384.16
2022-10-05T19:43:39.315Z,101398.97
2022-10-05T19:48:45.386Z,101396.34
2022-10-05T19:53:50.494Z,101412.00
2022-10-05T19:59:01.417Z,101434.66
2022-10-05T20:04:09.181Z,101441.63
2022-10-05T20:09:30.873Z,101451.22
2022-10-05T20:14:41.572Z,101457.31
2022-10-05T20:20:03.805Z,101473.00
2022-10-05T20:25:06.240Z,101477.31
2022-10-05T20:30:08.752Z,101528.69
2022-10-05T20:35:10.459Z,101560.19
2022-10-05T20:40:12.210Z,101562.44
2022-10-05T20:45:14.112Z,101579.31
2022-10-05T20:50:15.603Z,101615.28
2022-10-05T20:55:17.023Z,101633.72
2022-10-05T21:00:20.835Z,101639.53
2022-10-05T21:05:22.576Z,101645.31
2022-10-05T21:10:23.991Z,101643.47
2022-10-05T21:15:25.391Z,101649.50
2022-10-05T21:20:26.792Z,101643.31
2022-10-05T21:25:28.168Z,101659.81
2022-10-05T21:30:32.693Z,101671.94
2022-10-05T21:35:34.075Z,101671.16
2022-10-05T21:40:35.388Z,101674.59
2022-10-05T21:45:37.040Z,101684.16
2022-10-05T21:50:38.761Z,101682.44
2022-10-05T21:55:44.491Z,101684.13
2022-10-05T22:00:46.047Z,101698.84
2022-10-05T22:05:47.868Z,101695.31
2022-10-05T22:10:51.779Z,101709.16
2022-10-05T22:15:56.958Z,101717.78
2022-10-05T22:20:58.430Z,101726.13
2022-10-05T22:26:00.544Z,101724.22
2022-10-05T22:31:03.280Z,101736.31
2022-10-05T22:36:05.487Z,101740.56
2022-10-05T22:41:10.851Z,101749.16
2022-10-05T22:46:13.003Z,101766.50
2022-10-05T22:51:14.398Z,101773.31
2022-10-05T22:56:16.104Z,101781.91
2022-10-05T23:01:18.183Z,101801.69
2022-10-05T23:06:20.726Z,101801.72
2022-10-05T23:11:25.691Z,101815.66
2022-10-05T23:16:29.442Z,101815.44
2022-10-05T23:21:31.068Z,101825.78
2022-10-05T23:26:32.897Z,101837.81
2022-10-05T23:31:34.524Z,101846.34
2022-10-05T23:36:36.007Z,101863.72
2022-10-05T23:41:44.208Z,101872.97
2022-10-05T23:46:45.789Z,101881.63
2022-10-05T23:51:47.131Z,101888.44
2022-10-05T23:56:48.435Z,101897.06
